Página principal
METAR-TAF:

METAR-TAF

Aeroportos :

Rota, Espanha

latitude: 36-39N, longitude: 006-21W, altura: 26 m

Observação actual do tempo

O boletim foi feito há 41 minutos, às 14:00 UTC
Vento 6 kt de sul, variando entre su-sudeste e oes-sudoeste
Temperatura 20°C
Humidade 73%
Pressão 1014 hPa
Visibilidade 10 km ou mais
Poucas nuvensa uma altura de 2500 ft, Cumulus congestus.

METAR: LERT 151400Z 19006KT 150V240 9999 FEW025TCU 20/15 Q1014 NOSIG

Hora: 15:41 (14:41 UTC)

Previsão

O boletim foi feito há 3 horas e 41 minutos, às 11:00 UTC
Previsão válida de 15 às 12 UTC a 15 às 21 UTC
Vento 6 kt de sul
Visibilidade 10 km ou mais
Poucas nuvensa uma altura de 3500 ft

TAF: LERT 151100Z 1512/1521 18006KT 9999 FEW035

Observações e previsões do tempo de mais de 4000 aeroportos (mensagens METAR e TAF).

As estações disponíveis são os pontos amarelos e vermelhos sobre o mapa.

Mova o rato sobre o mapa para ver o nome da estação.

Depois clique no ponto para visualizar as observações e previsões meteorológicas.

Para alterar o mapa : clique nos botões verdes com uma cruz preta para aumentar o zoom; no botão verde com uma pitada de zoom; ou nas setas verdes para mapas adjacentes.


METAR-TAF: